sensor_id;sensor_type;location;lat;lon;timestamp;P1;durP1;ratioP1;P2;durP2;ratioP2
59846;SDS011;45728;48.788;2.302;2023-05-07T00:00:22;2.22;;;1.08;;
59846;SDS011;45728;48.788;2.302;2023-05-07T00:02:48;2.53;;;1.35;;
59846;SDS011;45728;48.788;2.302;2023-05-07T00:05:14;2.00;;;1.00;;
59846;SDS011;45728;48.788;2.302;2023-05-07T00:07:41;4.18;;;1.35;;
59846;SDS011;45728;48.788;2.302;2023-05-07T00:10:08;2.58;;;1.10;;
59846;SDS011;45728;48.788;2.302;2023-05-07T00:12:35;2.90;;;1.20;;
59846;SDS011;45728;48.788;2.302;2023-05-07T00:15:02;3.17;;;1.20;;
59846;SDS011;45728;48.788;2.302;2023-05-07T00:17:29;2.35;;;1.30;;
59846;SDS011;45728;48.788;2.302;2023-05-07T00:19:55;2.35;;;1.10;;
59846;SDS011;45728;48.788;2.302;2023-05-07T00:22:21;1.80;;;1.42;;
59846;SDS011;45728;48.788;2.302;2023-05-07T00:24:48;3.08;;;1.27;;
59846;SDS011;45728;48.788;2.302;2023-05-07T00:27:14;3.13;;;1.50;;
59846;SDS011;45728;48.788;2.302;2023-05-07T00:29:40;2.22;;;1.50;;
59846;SDS011;45728;48.788;2.302;2023-05-07T00:32:06;2.33;;;1.60;;
59846;SDS011;45728;48.788;2.302;2023-05-07T00:34:32;2.15;;;1.20;;
59846;SDS011;45728;48.788;2.302;2023-05-07T00:36:58;3.60;;;1.50;;
59846;SDS011;45728;48.788;2.302;2023-05-07T00:39:24;2.60;;;1.20;;
59846;SDS011;45728;48.788;2.302;2023-05-07T00:41:50;2.97;;;1.40;;
59846;SDS011;45728;48.788;2.302;2023-05-07T00:44:16;2.55;;;1.35;;
59846;SDS011;45728;48.788;2.302;2023-05-07T00:46:43;2.92;;;1.05;;
59846;SDS011;45728;48.788;2.302;2023-05-07T00:49:15;1.40;;;1.08;;
59846;SDS011;45728;48.788;2.302;2023-05-07T00:51:41;2.80;;;0.93;;
59846;SDS011;45728;48.788;2.302;2023-05-07T00:54:07;1.98;;;0.90;;
59846;SDS011;45728;48.788;2.302;2023-05-07T00:56:34;5.65;;;1.33;;
59846;SDS011;45728;48.788;2.302;2023-05-07T00:59:03;2.15;;;1.30;;
59846;SDS011;45728;48.788;2.302;2023-05-07T01:01:31;2.80;;;0.95;;
59846;SDS011;45728;48.788;2.302;2023-05-07T01:03:57;2.08;;;1.17;;
59846;SDS011;45728;48.788;2.302;2023-05-07T01:06:23;2.55;;;1.02;;
59846;SDS011;45728;48.788;2.302;2023-05-07T01:08:53;1.50;;;0.90;;
59846;SDS011;45728;48.788;2.302;2023-05-07T01:11:22;1.95;;;1.05;;
59846;SDS011;45728;48.788;2.302;2023-05-07T01:13:48;2.83;;;1.20;;
59846;SDS011;45728;48.788;2.302;2023-05-07T01:16:16;3.53;;;1.20;;
59846;SDS011;45728;48.788;2.302;2023-05-07T01:18:42;2.78;;;1.33;;
59846;SDS011;45728;48.788;2.302;2023-05-07T01:21:08;3.10;;;1.30;;
59846;SDS011;45728;48.788;2.302;2023-05-07T01:23:36;2.10;;;1.10;;
59846;SDS011;45728;48.788;2.302;2023-05-07T01:26:04;2.80;;;1.60;;
59846;SDS011;45728;48.788;2.302;2023-05-07T01:28:30;2.63;;;1.30;;
59846;SDS011;45728;48.788;2.302;2023-05-07T01:30:58;3.15;;;1.60;;
59846;SDS011;45728;48.788;2.302;2023-05-07T01:33:27;2.88;;;1.63;;
59846;SDS011;45728;48.788;2.302;2023-05-07T01:35:57;1.63;;;1.10;;
59846;SDS011;45728;48.788;2.302;2023-05-07T01:38:25;3.10;;;1.55;;
59846;SDS011;45728;48.788;2.302;2023-05-07T01:40:53;3.53;;;1.63;;
59846;SDS011;45728;48.788;2.302;2023-05-07T01:43:19;1.63;;;1.23;;
59846;SDS011;45728;48.788;2.302;2023-05-07T01:45:45;3.08;;;1.35;;
59846;SDS011;45728;48.788;2.302;2023-05-07T01:48:12;2.88;;;1.77;;
59846;SDS011;45728;48.788;2.302;2023-05-07T01:50:41;3.00;;;1.90;;
59846;SDS011;45728;48.788;2.302;2023-05-07T01:53:08;3.53;;;1.90;;
59846;SDS011;45728;48.788;2.302;2023-05-07T01:55:34;3.15;;;1.88;;
59846;SDS011;45728;48.788;2.302;2023-05-07T01:58:02;2.40;;;1.77;;
59846;SDS011;45728;48.788;2.302;2023-05-07T02:00:29;2.33;;;1.48;;
59846;SDS011;45728;48.788;2.302;2023-05-07T02:02:55;2.63;;;1.45;;
59846;SDS011;45728;48.788;2.302;2023-05-07T02:05:22;4.00;;;1.75;;
59846;SDS011;45728;48.788;2.302;2023-05-07T02:07:48;3.50;;;1.60;;
59846;SDS011;45728;48.788;2.302;2023-05-07T02:10:14;5.57;;;1.80;;
59846;SDS011;45728;48.788;2.302;2023-05-07T02:12:40;2.20;;;1.70;;
59846;SDS011;45728;48.788;2.302;2023-05-07T02:15:08;3.03;;;1.70;;
59846;SDS011;45728;48.788;2.302;2023-05-07T02:17:34;2.00;;;1.33;;
59846;SDS011;45728;48.788;2.302;2023-05-07T02:20:01;2.53;;;1.70;;
59846;SDS011;45728;48.788;2.302;2023-05-07T02:22:27;2.63;;;1.75;;
59846;SDS011;45728;48.788;2.302;2023-05-07T02:24:53;3.92;;;1.92;;
59846;SDS011;45728;48.788;2.302;2023-05-07T02:27:19;2.88;;;1.60;;
59846;SDS011;45728;48.788;2.302;2023-05-07T02:29:45;1.75;;;1.38;;
59846;SDS011;45728;48.788;2.302;2023-05-07T02:32:11;2.35;;;1.60;;
59846;SDS011;45728;48.788;2.302;2023-05-07T02:34:37;3.38;;;1.23;;
59846;SDS011;45728;48.788;2.302;2023-05-07T02:37:03;3.80;;;1.50;;
59846;SDS011;45728;48.788;2.302;2023-05-07T02:39:29;3.53;;;1.60;;
59846;SDS011;45728;48.788;2.302;2023-05-07T02:41:55;1.63;;;1.40;;
59846;SDS011;45728;48.788;2.302;2023-05-07T02:44:21;4.15;;;1.50;;
59846;SDS011;45728;48.788;2.302;2023-05-07T02:46:47;2.83;;;1.30;;
59846;SDS011;45728;48.788;2.302;2023-05-07T02:49:13;2.58;;;1.38;;
59846;SDS011;45728;48.788;2.302;2023-05-07T02:51:39;2.10;;;1.30;;
59846;SDS011;45728;48.788;2.302;2023-05-07T02:54:06;1.95;;;1.27;;
59846;SDS011;45728;48.788;2.302;2023-05-07T02:56:32;3.38;;;1.50;;
59846;SDS011;45728;48.788;2.302;2023-05-07T02:58:58;2.20;;;1.35;;
59846;SDS011;45728;48.788;2.302;2023-05-07T03:01:24;2.83;;;1.48;;
59846;SDS011;45728;48.788;2.302;2023-05-07T03:03:50;2.10;;;1.55;;
59846;SDS011;45728;48.788;2.302;2023-05-07T03:06:16;1.90;;;1.40;;
59846;SDS011;45728;48.788;2.302;2023-05-07T03:08:42;2.20;;;1.10;;
59846;SDS011;45728;48.788;2.302;2023-05-07T03:11:08;2.03;;;1.08;;
59846;SDS011;45728;48.788;2.302;2023-05-07T03:13:35;1.88;;;1.15;;
59846;SDS011;45728;48.788;2.302;2023-05-07T03:16:01;3.92;;;1.25;;
59846;SDS011;45728;48.788;2.302;2023-05-07T03:18:27;1.42;;;0.80;;
59846;SDS011;45728;48.788;2.302;2023-05-07T03:20:53;1.95;;;1.00;;
59846;SDS011;45728;48.788;2.302;2023-05-07T03:23:19;2.00;;;0.93;;
59846;SDS011;45728;48.788;2.302;2023-05-07T03:25:45;1.95;;;0.82;;
59846;SDS011;45728;48.788;2.302;2023-05-07T03:28:11;2.03;;;0.85;;
59846;SDS011;45728;48.788;2.302;2023-05-07T03:30:37;1.27;;;0.85;;
59846;SDS011;45728;48.788;2.302;2023-05-07T03:33:03;2.42;;;0.90;;
59846;SDS011;45728;48.788;2.302;2023-05-07T03:35:31;1.75;;;0.90;;
59846;SDS011;45728;48.788;2.302;2023-05-07T03:37:57;2.95;;;0.80;;
59846;SDS011;45728;48.788;2.302;2023-05-07T03:40:23;1.05;;;0.80;;
59846;SDS011;45728;48.788;2.302;2023-05-07T03:42:49;1.33;;;1.00;;
59846;SDS011;45728;48.788;2.302;2023-05-07T03:45:15;1.20;;;1.10;;
59846;SDS011;45728;48.788;2.302;2023-05-07T03:47:41;3.83;;;1.45;;
59846;SDS011;45728;48.788;2.302;2023-05-07T03:50:07;2.28;;;1.27;;
59846;SDS011;45728;48.788;2.302;2023-05-07T03:52:34;1.10;;;0.90;;
59846;SDS011;45728;48.788;2.302;2023-05-07T03:55:00;2.08;;;0.95;;
59846;SDS011;45728;48.788;2.302;2023-05-07T03:57:26;1.52;;;1.00;;
59846;SDS011;45728;48.788;2.302;2023-05-07T03:59:52;0.80;;;0.80;;
59846;SDS011;45728;48.788;2.302;2023-05-07T04:02:18;1.92;;;1.00;;
59846;SDS011;45728;48.788;2.302;2023-05-07T04:04:44;1.35;;;0.80;;
59846;SDS011;45728;48.788;2.302;2023-05-07T04:07:10;1.23;;;0.90;;
59846;SDS011;45728;48.788;2.302;2023-05-07T04:09:36;1.25;;;0.90;;
59846;SDS011;45728;48.788;2.302;2023-05-07T04:12:02;1.50;;;1.00;;
59846;SDS011;45728;48.788;2.302;2023-05-07T04:14:28;1.88;;;1.20;;
59846;SDS011;45728;48.788;2.302;2023-05-07T04:16:58;2.72;;;1.35;;
59846;SDS011;45728;48.788;2.302;2023-05-07T04:19:25;1.70;;;1.23;;
59846;SDS011;45728;48.788;2.302;2023-05-07T04:21:51;1.70;;;1.20;;
59846;SDS011;45728;48.788;2.302;2023-05-07T04:24:17;4.32;;;1.05;;
59846;SDS011;45728;48.788;2.302;2023-05-07T04:26:43;2.10;;;1.13;;
59846;SDS011;45728;48.788;2.302;2023-05-07T04:29:09;2.25;;;1.00;;
59846;SDS011;45728;48.788;2.302;2023-05-07T04:31:35;2.83;;;0.90;;
59846;SDS011;45728;48.788;2.302;2023-05-07T04:34:01;1.25;;;1.00;;
59846;SDS011;45728;48.788;2.302;2023-05-07T04:36:27;1.58;;;0.98;;
59846;SDS011;45728;48.788;2.302;2023-05-07T04:38:54;1.33;;;1.00;;
59846;SDS011;45728;48.788;2.302;2023-05-07T04:41:20;1.73;;;0.90;;
59846;SDS011;45728;48.788;2.302;2023-05-07T04:43:46;1.23;;;0.80;;
59846;SDS011;45728;48.788;2.302;2023-05-07T04:46:12;0.90;;;0.80;;
59846;SDS011;45728;48.788;2.302;2023-05-07T04:48:38;1.50;;;0.90;;
59846;SDS011;45728;48.788;2.302;2023-05-07T04:51:04;2.08;;;0.90;;
59846;SDS011;45728;48.788;2.302;2023-05-07T04:53:31;1.50;;;0.90;;
59846;SDS011;45728;48.788;2.302;2023-05-07T04:55:57;2.05;;;0.88;;
59846;SDS011;45728;48.788;2.302;2023-05-07T04:58:24;2.50;;;0.93;;
59846;SDS011;45728;48.788;2.302;2023-05-07T05:00:50;1.35;;;1.00;;
59846;SDS011;45728;48.788;2.302;2023-05-07T05:03:16;2.67;;;1.00;;
59846;SDS011;45728;48.788;2.302;2023-05-07T05:08:46;1.73;;;1.00;;
59846;SDS011;45728;48.788;2.302;2023-05-07T05:11:12;1.00;;;0.80;;
59846;SDS011;45728;48.788;2.302;2023-05-07T05:13:38;2.78;;;1.20;;
59846;SDS011;45728;48.788;2.302;2023-05-07T05:16:04;1.30;;;0.70;;
59846;SDS011;45728;48.788;2.302;2023-05-07T05:18:31;3.08;;;1.20;;
59846;SDS011;45728;48.788;2.302;2023-05-07T05:20:57;1.52;;;1.00;;
59846;SDS011;45728;48.788;2.302;2023-05-07T05:23:23;2.03;;;0.88;;
59846;SDS011;45728;48.788;2.302;2023-05-07T05:25:50;0.90;;;0.80;;
59846;SDS011;45728;48.788;2.302;2023-05-07T05:28:20;1.92;;;1.10;;
59846;SDS011;45728;48.788;2.302;2023-05-07T05:30:46;2.38;;;0.80;;
59846;SDS011;45728;48.788;2.302;2023-05-07T05:33:12;3.38;;;0.90;;
59846;SDS011;45728;48.788;2.302;2023-05-07T05:35:38;2.83;;;1.00;;
59846;SDS011;45728;48.788;2.302;2023-05-07T05:38:04;1.48;;;0.70;;
59846;SDS011;45728;48.788;2.302;2023-05-07T05:40:30;2.13;;;0.80;;
59846;SDS011;45728;48.788;2.302;2023-05-07T05:42:57;1.80;;;0.80;;
59846;SDS011;45728;48.788;2.302;2023-05-07T05:45:23;3.97;;;0.80;;
59846;SDS011;45728;48.788;2.302;2023-05-07T05:47:50;1.38;;;0.70;;
59846;SDS011;45728;48.788;2.302;2023-05-07T05:50:16;1.00;;;0.85;;
59846;SDS011;45728;48.788;2.302;2023-05-07T05:52:42;2.25;;;0.70;;
59846;SDS011;45728;48.788;2.302;2023-05-07T05:55:08;1.50;;;0.90;;
59846;SDS011;45728;48.788;2.302;2023-05-07T05:57:34;2.17;;;1.00;;
59846;SDS011;45728;48.788;2.302;2023-05-07T06:00:01;0.70;;;0.70;;
59846;SDS011;45728;48.788;2.302;2023-05-07T06:02:28;0.88;;;0.65;;
59846;SDS011;45728;48.788;2.302;2023-05-07T06:04:54;0.85;;;0.70;;
59846;SDS011;45728;48.788;2.302;2023-05-07T06:07:20;1.45;;;0.80;;
59846;SDS011;45728;48.788;2.302;2023-05-07T06:09:46;1.33;;;0.80;;
59846;SDS011;45728;48.788;2.302;2023-05-07T06:12:12;1.55;;;1.00;;
59846;SDS011;45728;48.788;2.302;2023-05-07T06:14:38;1.27;;;0.98;;
59846;SDS011;45728;48.788;2.302;2023-05-07T06:17:04;1.55;;;0.90;;
59846;SDS011;45728;48.788;2.302;2023-05-07T06:19:30;1.63;;;1.08;;
59846;SDS011;45728;48.788;2.302;2023-05-07T06:21:56;2.00;;;0.95;;
59846;SDS011;45728;48.788;2.302;2023-05-07T06:24:23;1.00;;;0.80;;
59846;SDS011;45728;48.788;2.302;2023-05-07T06:26:50;1.00;;;0.90;;
59846;SDS011;45728;48.788;2.302;2023-05-07T06:29:16;1.13;;;0.80;;
59846;SDS011;45728;48.788;2.302;2023-05-07T06:31:42;1.60;;;0.80;;
59846;SDS011;45728;48.788;2.302;2023-05-07T06:34:08;1.50;;;0.90;;
59846;SDS011;45728;48.788;2.302;2023-05-07T06:36:34;1.77;;;1.10;;
59846;SDS011;45728;48.788;2.302;2023-05-07T06:39:00;1.80;;;1.00;;
59846;SDS011;45728;48.788;2.302;2023-05-07T06:41:26;2.13;;;0.95;;
59846;SDS011;45728;48.788;2.302;2023-05-07T06:43:53;0.77;;;0.70;;
59846;SDS011;45728;48.788;2.302;2023-05-07T06:46:19;1.02;;;0.88;;
59846;SDS011;45728;48.788;2.302;2023-05-07T06:48:45;2.17;;;0.90;;
59846;SDS011;45728;48.788;2.302;2023-05-07T06:51:11;1.35;;;0.93;;
59846;SDS011;45728;48.788;2.302;2023-05-07T06:53:37;1.13;;;0.90;;
59846;SDS011;45728;48.788;2.302;2023-05-07T06:56:03;1.70;;;1.05;;
59846;SDS011;45728;48.788;2.302;2023-05-07T06:58:29;2.00;;;0.80;;
59846;SDS011;45728;48.788;2.302;2023-05-07T07:00:55;1.45;;;1.00;;
59846;SDS011;45728;48.788;2.302;2023-05-07T07:03:21;1.48;;;1.00;;
59846;SDS011;45728;48.788;2.302;2023-05-07T07:05:50;1.58;;;0.90;;
59846;SDS011;45728;48.788;2.302;2023-05-07T07:08:18;1.45;;;1.10;;
59846;SDS011;45728;48.788;2.302;2023-05-07T07:10:46;1.55;;;1.10;;
59846;SDS011;45728;48.788;2.302;2023-05-07T07:13:13;2.30;;;1.20;;
59846;SDS011;45728;48.788;2.302;2023-05-07T07:15:39;2.35;;;1.15;;
59846;SDS011;45728;48.788;2.302;2023-05-07T07:18:05;1.35;;;0.93;;
59846;SDS011;45728;48.788;2.302;2023-05-07T07:20:32;2.53;;;1.27;;
59846;SDS011;45728;48.788;2.302;2023-05-07T07:22:58;2.50;;;1.27;;
59846;SDS011;45728;48.788;2.302;2023-05-07T07:25:25;1.83;;;1.27;;
59846;SDS011;45728;48.788;2.302;2023-05-07T07:27:51;2.00;;;1.48;;
59846;SDS011;45728;48.788;2.302;2023-05-07T07:30:17;1.00;;;0.90;;
59846;SDS011;45728;48.788;2.302;2023-05-07T07:32:43;3.13;;;1.20;;
59846;SDS011;45728;48.788;2.302;2023-05-07T07:35:09;2.28;;;1.17;;
59846;SDS011;45728;48.788;2.302;2023-05-07T07:37:35;1.40;;;1.20;;
59846;SDS011;45728;48.788;2.302;2023-05-07T07:40:02;3.30;;;1.45;;
59846;SDS011;45728;48.788;2.302;2023-05-07T07:42:29;2.03;;;1.25;;
59846;SDS011;45728;48.788;2.302;2023-05-07T07:44:55;1.85;;;0.90;;
59846;SDS011;45728;48.788;2.302;2023-05-07T07:47:22;1.42;;;1.20;;
59846;SDS011;45728;48.788;2.302;2023-05-07T07:49:48;1.83;;;1.33;;
59846;SDS011;45728;48.788;2.302;2023-05-07T07:52:34;1.33;;;1.23;;
59846;SDS011;45728;48.788;2.302;2023-05-07T07:55:00;2.08;;;1.10;;
59846;SDS011;45728;48.788;2.302;2023-05-07T07:57:27;1.38;;;1.02;;
59846;SDS011;45728;48.788;2.302;2023-05-07T07:59:53;2.47;;;1.30;;
59846;SDS011;45728;48.788;2.302;2023-05-07T08:02:19;2.00;;;1.20;;
59846;SDS011;45728;48.788;2.302;2023-05-07T08:04:45;1.50;;;1.02;;
59846;SDS011;45728;48.788;2.302;2023-05-07T08:07:11;1.88;;;1.30;;
59846;SDS011;45728;48.788;2.302;2023-05-07T08:09:38;1.95;;;1.10;;
59846;SDS011;45728;48.788;2.302;2023-05-07T08:12:04;2.50;;;1.27;;
59846;SDS011;45728;48.788;2.302;2023-05-07T08:14:31;1.10;;;1.05;;
59846;SDS011;45728;48.788;2.302;2023-05-07T08:16:58;1.48;;;1.25;;
59846;SDS011;45728;48.788;2.302;2023-05-07T08:19:24;3.25;;;1.40;;
59846;SDS011;45728;48.788;2.302;2023-05-07T08:21:50;1.83;;;1.10;;
59846;SDS011;45728;48.788;2.302;2023-05-07T08:24:16;1.65;;;1.45;;
59846;SDS011;45728;48.788;2.302;2023-05-07T08:26:45;1.40;;;1.30;;
59846;SDS011;45728;48.788;2.302;2023-05-07T08:29:11;1.40;;;1.30;;
59846;SDS011;45728;48.788;2.302;2023-05-07T08:31:37;1.55;;;1.40;;
59846;SDS011;45728;48.788;2.302;2023-05-07T08:34:05;1.45;;;1.20;;
59846;SDS011;45728;48.788;2.302;2023-05-07T08:36:32;1.55;;;1.33;;
59846;SDS011;45728;48.788;2.302;2023-05-07T08:38:59;1.85;;;1.38;;
59846;SDS011;45728;48.788;2.302;2023-05-07T08:41:25;3.05;;;2.10;;
59846;SDS011;45728;48.788;2.302;2023-05-07T08:43:51;2.03;;;1.42;;
59846;SDS011;45728;48.788;2.302;2023-05-07T08:46:18;2.38;;;1.05;;
59846;SDS011;45728;48.788;2.302;2023-05-07T08:48:49;1.58;;;1.30;;
59846;SDS011;45728;48.788;2.302;2023-05-07T08:51:17;2.47;;;1.00;;
59846;SDS011;45728;48.788;2.302;2023-05-07T08:53:45;2.33;;;1.40;;
59846;SDS011;45728;48.788;2.302;2023-05-07T08:56:13;2.92;;;1.38;;
59846;SDS011;45728;48.788;2.302;2023-05-07T08:58:45;2.83;;;1.90;;
59846;SDS011;45728;48.788;2.302;2023-05-07T09:01:14;2.00;;;1.40;;
59846;SDS011;45728;48.788;2.302;2023-05-07T09:03:42;1.75;;;1.40;;
59846;SDS011;45728;48.788;2.302;2023-05-07T09:06:11;2.78;;;1.30;;
59846;SDS011;45728;48.788;2.302;2023-05-07T09:08:37;1.48;;;1.25;;
59846;SDS011;45728;48.788;2.302;2023-05-07T09:11:03;2.55;;;1.58;;
59846;SDS011;45728;48.788;2.302;2023-05-07T09:13:29;1.90;;;1.40;;
59846;SDS011;45728;48.788;2.302;2023-05-07T09:15:55;2.20;;;1.50;;
59846;SDS011;45728;48.788;2.302;2023-05-07T09:18:23;2.17;;;1.60;;
59846;SDS011;45728;48.788;2.302;2023-05-07T09:20:50;1.73;;;1.20;;
59846;SDS011;45728;48.788;2.302;2023-05-07T09:23:16;1.45;;;1.30;;
59846;SDS011;45728;48.788;2.302;2023-05-07T09:25:42;3.63;;;1.52;;
59846;SDS011;45728;48.788;2.302;2023-05-07T09:28:08;1.33;;;1.10;;
59846;SDS011;45728;48.788;2.302;2023-05-07T09:30:36;2.50;;;1.13;;
59846;SDS011;45728;48.788;2.302;2023-05-07T09:33:02;2.10;;;1.10;;
59846;SDS011;45728;48.788;2.302;2023-05-07T09:35:29;2.30;;;1.27;;
59846;SDS011;45728;48.788;2.302;2023-05-07T09:37:57;2.47;;;1.20;;
59846;SDS011;45728;48.788;2.302;2023-05-07T09:40:25;2.65;;;1.48;;
59846;SDS011;45728;48.788;2.302;2023-05-07T09:42:52;1.42;;;1.20;;
59846;SDS011;45728;48.788;2.302;2023-05-07T09:45:24;1.50;;;1.40;;
59846;SDS011;45728;48.788;2.302;2023-05-07T09:47:53;1.40;;;1.30;;
59846;SDS011;45728;48.788;2.302;2023-05-07T09:50:27;1.67;;;1.50;;
59846;SDS011;45728;48.788;2.302;2023-05-07T09:52:56;2.40;;;2.10;;
59846;SDS011;45728;48.788;2.302;2023-05-07T09:55:23;1.55;;;1.45;;
59846;SDS011;45728;48.788;2.302;2023-05-07T09:57:50;3.15;;;1.85;;
59846;SDS011;45728;48.788;2.302;2023-05-07T10:00:20;1.75;;;1.42;;
59846;SDS011;45728;48.788;2.302;2023-05-07T10:02:48;1.90;;;1.35;;
59846;SDS011;45728;48.788;2.302;2023-05-07T10:05:21;4.38;;;2.00;;
59846;SDS011;45728;48.788;2.302;2023-05-07T10:07:47;2.92;;;1.73;;
59846;SDS011;45728;48.788;2.302;2023-05-07T10:10:15;1.65;;;1.25;;
59846;SDS011;45728;48.788;2.302;2023-05-07T10:12:41;2.92;;;1.40;;
59846;SDS011;45728;48.788;2.302;2023-05-07T10:15:08;2.20;;;1.20;;
59846;SDS011;45728;48.788;2.302;2023-05-07T10:17:40;3.33;;;1.38;;
59846;SDS011;45728;48.788;2.302;2023-05-07T10:20:06;3.67;;;1.80;;
59846;SDS011;45728;48.788;2.302;2023-05-07T10:22:46;2.55;;;1.42;;
59846;SDS011;45728;48.788;2.302;2023-05-07T10:25:26;1.38;;;1.20;;
59846;SDS011;45728;48.788;2.302;2023-05-07T10:27:55;2.15;;;1.35;;
59846;SDS011;45728;48.788;2.302;2023-05-07T10:32:51;1.50;;;1.40;;
59846;SDS011;45728;48.788;2.302;2023-05-07T10:35:21;2.17;;;1.38;;
59846;SDS011;45728;48.788;2.302;2023-05-07T10:37:50;2.00;;;1.23;;
59846;SDS011;45728;48.788;2.302;2023-05-07T10:40:17;2.58;;;1.50;;
59846;SDS011;45728;48.788;2.302;2023-05-07T10:45:28;2.33;;;1.60;;
59846;SDS011;45728;48.788;2.302;2023-05-07T10:48:07;2.20;;;1.42;;
59846;SDS011;45728;48.788;2.302;2023-05-07T10:50:34;2.85;;;1.58;;
59846;SDS011;45728;48.788;2.302;2023-05-07T10:55:46;2.08;;;1.88;;
59846;SDS011;45728;48.788;2.302;2023-05-07T11:00:56;3.00;;;1.98;;
59846;SDS011;45728;48.788;2.302;2023-05-07T11:03:24;2.33;;;1.80;;
59846;SDS011;45728;48.788;2.302;2023-05-07T11:06:10;2.70;;;1.80;;
59846;SDS011;45728;48.788;2.302;2023-05-07T11:08:53;2.40;;;1.60;;
59846;SDS011;45728;48.788;2.302;2023-05-07T11:11:19;4.53;;;1.65;;
59846;SDS011;45728;48.788;2.302;2023-05-07T11:16:19;3.13;;;1.38;;
59846;SDS011;45728;48.788;2.302;2023-05-07T11:18:50;1.55;;;1.33;;
59846;SDS011;45728;48.788;2.302;2023-05-07T11:21:33;2.03;;;1.30;;
59846;SDS011;45728;48.788;2.302;2023-05-07T11:24:01;3.22;;;1.40;;
59846;SDS011;45728;48.788;2.302;2023-05-07T11:26:28;1.70;;;1.40;;
59846;SDS011;45728;48.788;2.302;2023-05-07T11:28:56;3.38;;;1.92;;
59846;SDS011;45728;48.788;2.302;2023-05-07T11:31:24;1.55;;;1.45;;
59846;SDS011;45728;48.788;2.302;2023-05-07T11:33:54;3.78;;;1.65;;
59846;SDS011;45728;48.788;2.302;2023-05-07T11:36:21;1.77;;;1.40;;
59846;SDS011;45728;48.788;2.302;2023-05-07T11:38:48;2.22;;;1.67;;
59846;SDS011;45728;48.788;2.302;2023-05-07T11:41:15;2.67;;;1.35;;
59846;SDS011;45728;48.788;2.302;2023-05-07T11:43:55;2.42;;;1.60;;
59846;SDS011;45728;48.788;2.302;2023-05-07T11:46:22;2.00;;;1.85;;
59846;SDS011;45728;48.788;2.302;2023-05-07T11:48:48;2.60;;;1.83;;
59846;SDS011;45728;48.788;2.302;2023-05-07T11:51:18;2.50;;;2.13;;
59846;SDS011;45728;48.788;2.302;2023-05-07T11:53:45;3.55;;;1.75;;
59846;SDS011;45728;48.788;2.302;2023-05-07T11:56:12;2.47;;;2.20;;
59846;SDS011;45728;48.788;2.302;2023-05-07T11:58:40;2.22;;;2.03;;
59846;SDS011;45728;48.788;2.302;2023-05-07T12:01:07;2.95;;;2.10;;
59846;SDS011;45728;48.788;2.302;2023-05-07T12:03:35;3.25;;;2.42;;
59846;SDS011;45728;48.788;2.302;2023-05-07T12:06:04;2.97;;;2.22;;
59846;SDS011;45728;48.788;2.302;2023-05-07T12:08:31;2.40;;;2.20;;
59846;SDS011;45728;48.788;2.302;2023-05-07T12:10:58;4.22;;;1.83;;
59846;SDS011;45728;48.788;2.302;2023-05-07T12:13:24;2.75;;;2.30;;
59846;SDS011;45728;48.788;2.302;2023-05-07T12:15:51;2.15;;;1.95;;
59846;SDS011;45728;48.788;2.302;2023-05-07T12:18:21;2.10;;;1.77;;
59846;SDS011;45728;48.788;2.302;2023-05-07T12:20:48;2.40;;;2.00;;
59846;SDS011;45728;48.788;2.302;2023-05-07T12:23:14;3.67;;;2.50;;
59846;SDS011;45728;48.788;2.302;2023-05-07T12:25:42;2.28;;;2.03;;
59846;SDS011;45728;48.788;2.302;2023-05-07T12:28:18;3.42;;;2.60;;
59846;SDS011;45728;48.788;2.302;2023-05-07T12:30:45;3.58;;;2.17;;
59846;SDS011;45728;48.788;2.302;2023-05-07T12:33:16;2.30;;;2.10;;
59846;SDS011;45728;48.788;2.302;2023-05-07T12:35:45;3.88;;;2.20;;
59846;SDS011;45728;48.788;2.302;2023-05-07T12:38:14;3.80;;;2.20;;
59846;SDS011;45728;48.788;2.302;2023-05-07T12:40:46;3.60;;;2.05;;
59846;SDS011;45728;48.788;2.302;2023-05-07T12:43:16;2.00;;;1.80;;
59846;SDS011;45728;48.788;2.302;2023-05-07T12:45:47;2.72;;;2.10;;
59846;SDS011;45728;48.788;2.302;2023-05-07T12:48:15;2.40;;;2.20;;
59846;SDS011;45728;48.788;2.302;2023-05-07T12:50:41;3.55;;;2.30;;
59846;SDS011;45728;48.788;2.302;2023-05-07T12:53:07;5.97;;;2.38;;
59846;SDS011;45728;48.788;2.302;2023-05-07T12:55:46;5.28;;;2.92;;
59846;SDS011;45728;48.788;2.302;2023-05-07T13:00:46;3.13;;;2.45;;
59846;SDS011;45728;48.788;2.302;2023-05-07T13:03:20;4.18;;;3.10;;
59846;SDS011;45728;48.788;2.302;2023-05-07T13:05:48;4.25;;;2.63;;
59846;SDS011;45728;48.788;2.302;2023-05-07T13:08:23;5.72;;;2.92;;
59846;SDS011;45728;48.788;2.302;2023-05-07T13:10:53;4.47;;;2.70;;
59846;SDS011;45728;48.788;2.302;2023-05-07T13:13:20;4.72;;;2.83;;
59846;SDS011;45728;48.788;2.302;2023-05-07T13:15:47;3.75;;;2.92;;
59846;SDS011;45728;48.788;2.302;2023-05-07T13:18:13;5.97;;;3.30;;
59846;SDS011;45728;48.788;2.302;2023-05-07T13:20:40;4.60;;;2.40;;
59846;SDS011;45728;48.788;2.302;2023-05-07T13:23:06;4.07;;;2.80;;
59846;SDS011;45728;48.788;2.302;2023-05-07T13:25:32;3.30;;;2.80;;
59846;SDS011;45728;48.788;2.302;2023-05-07T13:27:58;5.90;;;2.97;;
59846;SDS011;45728;48.788;2.302;2023-05-07T13:30:24;4.53;;;3.55;;
59846;SDS011;45728;48.788;2.302;2023-05-07T13:32:51;4.07;;;3.45;;
59846;SDS011;45728;48.788;2.302;2023-05-07T13:35:20;4.03;;;3.42;;
59846;SDS011;45728;48.788;2.302;2023-05-07T13:37:47;3.20;;;2.88;;
59846;SDS011;45728;48.788;2.302;2023-05-07T13:40:17;3.25;;;2.80;;
59846;SDS011;45728;48.788;2.302;2023-05-07T13:42:44;3.35;;;3.05;;
59846;SDS011;45728;48.788;2.302;2023-05-07T13:45:10;3.38;;;3.05;;
59846;SDS011;45728;48.788;2.302;2023-05-07T13:47:40;3.88;;;3.10;;
59846;SDS011;45728;48.788;2.302;2023-05-07T13:50:07;5.53;;;3.05;;
59846;SDS011;45728;48.788;2.302;2023-05-07T13:52:34;3.17;;;2.75;;
59846;SDS011;45728;48.788;2.302;2023-05-07T13:55:00;4.15;;;3.05;;
59846;SDS011;45728;48.788;2.302;2023-05-07T13:57:26;3.50;;;3.20;;
59846;SDS011;45728;48.788;2.302;2023-05-07T13:59:52;4.30;;;3.85;;
59846;SDS011;45728;48.788;2.302;2023-05-07T14:02:18;3.75;;;3.35;;
59846;SDS011;45728;48.788;2.302;2023-05-07T14:04:44;5.85;;;4.10;;
59846;SDS011;45728;48.788;2.302;2023-05-07T14:07:10;3.95;;;3.58;;
59846;SDS011;45728;48.788;2.302;2023-05-07T14:09:37;3.70;;;3.30;;
59846;SDS011;45728;48.788;2.302;2023-05-07T14:12:03;3.30;;;3.00;;
59846;SDS011;45728;48.788;2.302;2023-05-07T14:14:30;3.00;;;2.80;;
59846;SDS011;45728;48.788;2.302;2023-05-07T14:16:56;3.15;;;2.88;;
59846;SDS011;45728;48.788;2.302;2023-05-07T14:19:22;3.95;;;3.10;;
59846;SDS011;45728;48.788;2.302;2023-05-07T14:21:48;3.95;;;3.65;;
59846;SDS011;45728;48.788;2.302;2023-05-07T14:24:14;4.75;;;3.85;;
59846;SDS011;45728;48.788;2.302;2023-05-07T14:26:41;4.88;;;4.10;;
59846;SDS011;45728;48.788;2.302;2023-05-07T14:29:07;5.03;;;4.45;;
59846;SDS011;45728;48.788;2.302;2023-05-07T14:31:33;4.70;;;4.05;;
59846;SDS011;45728;48.788;2.302;2023-05-07T14:33:59;4.80;;;4.38;;
59846;SDS011;45728;48.788;2.302;2023-05-07T14:36:25;4.80;;;3.97;;
59846;SDS011;45728;48.788;2.302;2023-05-07T14:38:52;4.80;;;4.20;;
59846;SDS011;45728;48.788;2.302;2023-05-07T14:41:22;5.93;;;4.55;;
59846;SDS011;45728;48.788;2.302;2023-05-07T14:43:48;4.32;;;4.03;;
59846;SDS011;45728;48.788;2.302;2023-05-07T14:46:17;4.75;;;3.85;;
59846;SDS011;45728;48.788;2.302;2023-05-07T14:48:44;4.60;;;4.20;;
59846;SDS011;45728;48.788;2.302;2023-05-07T14:51:11;4.47;;;4.05;;
59846;SDS011;45728;48.788;2.302;2023-05-07T14:53:38;3.95;;;3.28;;
59846;SDS011;45728;48.788;2.302;2023-05-07T14:56:06;3.60;;;3.30;;
59846;SDS011;45728;48.788;2.302;2023-05-07T14:58:32;3.17;;;2.88;;
59846;SDS011;45728;48.788;2.302;2023-05-07T15:00:59;3.15;;;2.85;;
59846;SDS011;45728;48.788;2.302;2023-05-07T15:03:26;3.65;;;3.35;;
59846;SDS011;45728;48.788;2.302;2023-05-07T15:05:53;3.17;;;2.90;;